Terminal Aerodrome Forecast
Issued by NWS

Home | Current Version | Previous Version | Text Only | Print | Product List | Glossary On
Versions: 1 2 3 4 5 6 7 8 9 10 11 12 13 14 15
000
FTUS46 KMTR 251741
TAFSTS
TAF
KSTS 251741Z 2518/2618 20004KT P6SM SKC
     FM252100 18008KT P6SM SKC
     FM260300 19004KT P6SM SKC
     FM261000 VRB03KT 3SM BR BKN007
     FM261600 VRB03KT P6SM SKC=

USA.gov is the U.S. government's official web portal to all federal, state and local government web resources and services.